createdAt,value
2023-05-10T00:10:13.554Z,22.65
2023-05-10T00:38:48.644Z,23.48
2023-05-10T00:49:47.403Z,23.00
2023-05-10T00:55:24.655Z,22.90
2023-05-10T01:07:26.810Z,24.00
2023-05-10T01:09:56.106Z,24.63
2023-05-10T01:15:16.814Z,23.83
2023-05-10T01:18:11.036Z,22.20
2023-05-10T01:30:44.508Z,23.20
2023-05-10T01:33:24.214Z,22.30
2023-05-10T01:36:14.343Z,22.73
2023-05-10T01:42:57.102Z,22.08
2023-05-10T01:45:41.585Z,23.23
2023-05-10T01:54:12.350Z,23.48
2023-05-10T01:56:49.473Z,23.58
2023-05-10T01:59:26.005Z,23.83
2023-05-10T02:02:11.166Z,22.17
2023-05-10T02:04:42.418Z,23.35
2023-05-10T02:07:11.044Z,23.15
2023-05-10T02:20:51.086Z,22.98
2023-05-10T02:23:25.128Z,22.30
2023-05-10T02:25:53.416Z,21.88
2023-05-10T02:31:15.009Z,22.10
2023-05-10T02:33:42.665Z,21.98
2023-05-10T02:36:16.168Z,20.90
2023-05-10T02:38:45.578Z,22.48
2023-05-10T02:44:05.989Z,22.23
2023-05-10T02:46:37.329Z,22.75
2023-05-10T02:49:08.767Z,22.67
2023-05-10T02:51:40.513Z,22.13
2023-05-10T02:57:29.366Z,21.52
2023-05-10T02:59:57.991Z,20.88
2023-05-10T03:06:25.676Z,21.83
2023-05-10T03:18:08.617Z,22.52
2023-05-10T03:21:08.828Z,21.48
2023-05-10T03:30:28.225Z,21.60
2023-05-10T04:04:37.079Z,20.08
2023-05-10T04:13:28.462Z,21.33
2023-05-10T04:29:12.054Z,19.92
2023-05-10T04:31:43.089Z,19.92
2023-05-10T04:49:12.646Z,19.25
2023-05-10T04:52:02.921Z,20.40
2023-05-10T04:54:48.303Z,19.42
2023-05-10T04:58:02.404Z,18.42
2023-05-10T05:00:42.019Z,20.20
2023-05-10T05:06:31.171Z,19.73
2023-05-10T05:09:21.238Z,21.27
2023-05-10T05:15:05.552Z,21.80
2023-05-10T05:17:47.426Z,19.80
2023-05-10T05:20:49.025Z,19.98
2023-05-10T05:42:18.574Z,21.23
2023-05-10T06:53:22.493Z,19.83
2023-05-10T06:55:53.265Z,19.55
2023-05-10T06:58:26.419Z,18.85
2023-05-10T07:01:15.024Z,19.33
2023-05-10T07:03:45.401Z,18.95
2023-05-10T07:09:15.202Z,19.75
2023-05-10T07:11:45.333Z,19.50
2023-05-10T07:17:24.236Z,19.63
2023-05-10T07:32:54.876Z,19.95
2023-05-10T07:35:21.522Z,20.02
2023-05-10T07:37:48.649Z,19.00
2023-05-10T07:42:56.999Z,19.48
2023-05-10T07:45:24.557Z,19.38
2023-05-10T07:47:52.097Z,18.90
2023-05-10T07:50:19.631Z,19.23
2023-05-10T07:52:46.239Z,19.67
2023-05-10T07:55:12.914Z,20.08
2023-05-10T07:57:39.590Z,19.15
2023-05-10T08:00:10.157Z,18.17
2023-05-10T08:02:37.713Z,19.50
2023-05-10T08:05:04.952Z,19.17
2023-05-10T08:07:31.562Z,19.42
2023-05-10T08:10:01.584Z,19.58
2023-05-10T08:12:28.171Z,20.13
2023-05-10T08:14:54.912Z,19.13
2023-05-10T08:17:27.284Z,19.83
2023-05-10T08:19:55.054Z,20.00
2023-05-10T08:22:21.672Z,21.42
2023-05-10T08:24:48.843Z,20.73
2023-05-10T08:27:18.620Z,19.73
2023-05-10T08:29:51.374Z,19.23
2023-05-10T08:32:18.536Z,20.05
2023-05-10T08:34:46.237Z,19.88
2023-05-10T08:39:49.207Z,18.65
2023-05-10T08:42:26.877Z,19.20
2023-05-10T08:44:54.856Z,19.92
2023-05-10T08:47:22.383Z,21.17
2023-05-10T08:49:56.442Z,20.33
2023-05-10T08:52:23.999Z,20.58
2023-05-10T08:54:50.969Z,20.02
2023-05-10T08:59:49.762Z,19.95
2023-05-10T09:02:18.795Z,19.52
2023-05-10T09:04:50.377Z,20.08
2023-05-10T09:07:18.824Z,20.17
2023-05-10T09:09:46.437Z,20.48
2023-05-10T09:12:14.725Z,20.45
2023-05-10T09:14:41.916Z,19.52
2023-05-10T09:17:11.584Z,19.42
2023-05-10T09:19:41.755Z,19.77
2023-05-10T09:22:09.430Z,20.70
2023-05-10T09:24:43.575Z,20.17
2023-05-10T09:27:11.540Z,19.92
2023-05-10T09:30:04.531Z,19.65
2023-05-10T09:32:41.674Z,20.00
2023-05-10T09:35:12.686Z,20.98
2023-05-10T09:37:47.213Z,19.35
2023-05-10T09:40:24.238Z,19.50
2023-05-10T09:42:58.680Z,20.45
2023-05-10T09:45:26.418Z,19.17
2023-05-10T09:47:55.529Z,19.20
2023-05-10T09:50:22.647Z,19.15
2023-05-10T09:52:55.792Z,19.80
2023-05-10T09:55:23.435Z,19.42
2023-05-10T09:57:50.814Z,19.38
2023-05-10T10:00:21.305Z,19.48
2023-05-10T10:02:53.325Z,19.17
2023-05-10T10:05:47.667Z,19.42
2023-05-10T10:08:15.785Z,19.98
2023-05-10T10:10:47.257Z,20.40
2023-05-10T10:13:14.086Z,20.13
2023-05-10T10:15:41.332Z,26.83
2023-05-10T10:18:09.260Z,20.92
2023-05-10T10:20:51.447Z,19.92
2023-05-10T10:23:18.192Z,19.60
2023-05-10T10:25:46.079Z,20.65
2023-05-10T10:28:12.720Z,19.98
2023-05-10T10:30:52.376Z,19.42
2023-05-10T10:33:29.097Z,19.17
2023-05-10T10:35:56.957Z,19.85
2023-05-10T10:38:24.065Z,20.42
2023-05-10T10:41:09.259Z,19.40
2023-05-10T10:43:36.210Z,20.10
2023-05-10T10:46:19.493Z,19.95
2023-05-10T10:49:11.643Z,19.27
2023-05-10T10:51:43.875Z,19.05
2023-05-10T10:54:11.484Z,19.67
2023-05-10T10:57:08.986Z,19.75
2023-05-10T10:59:35.626Z,19.00
2023-05-10T11:02:03.931Z,19.63
2023-05-10T11:04:42.495Z,20.75
2023-05-10T11:07:19.081Z,20.50
2023-05-10T11:09:47.301Z,22.63
2023-05-10T11:12:16.991Z,19.33
2023-05-10T11:14:51.055Z,19.10
2023-05-10T11:17:28.879Z,20.63
2023-05-10T11:20:14.644Z,19.48
2023-05-10T11:25:27.991Z,19.70
2023-05-10T11:27:54.820Z,20.00
2023-05-10T11:32:55.082Z,20.02
2023-05-10T11:35:22.747Z,19.52
2023-05-10T11:37:49.474Z,19.77
2023-05-10T11:40:16.519Z,19.88
2023-05-10T11:42:43.928Z,20.60
2023-05-10T12:06:52.654Z,19.23
2023-05-10T12:09:39.714Z,19.80
2023-05-10T12:12:10.218Z,20.10
2023-05-10T12:14:36.966Z,19.52
2023-05-10T12:17:03.689Z,19.92
2023-05-10T12:22:26.084Z,21.30
2023-05-10T12:24:56.992Z,19.92
2023-05-10T12:27:32.764Z,19.92
2023-05-10T12:30:03.861Z,19.75
2023-05-10T12:32:55.216Z,19.80
2023-05-10T12:35:23.208Z,19.95
2023-05-10T12:37:53.137Z,19.35
2023-05-10T12:40:19.873Z,19.65
2023-05-10T12:42:46.583Z,20.00
2023-05-10T12:45:13.861Z,18.52
2023-05-10T12:47:43.715Z,20.25
2023-05-10T12:50:11.022Z,19.23
2023-05-10T12:52:38.861Z,19.33
2023-05-10T12:55:05.706Z,19.88
2023-05-10T13:00:01.968Z,19.48
2023-05-10T13:02:34.963Z,19.27
2023-05-10T13:05:02.355Z,20.65
2023-05-10T13:07:38.553Z,20.17
2023-05-10T13:10:11.004Z,20.35
2023-05-10T13:12:39.318Z,20.58
2023-05-10T13:15:06.595Z,22.70
2023-05-10T13:17:42.025Z,19.17
2023-05-10T13:20:10.745Z,21.77
2023-05-10T13:22:41.508Z,20.02
2023-05-10T13:25:08.488Z,20.10
2023-05-10T13:27:38.642Z,20.38
2023-05-10T13:30:05.974Z,19.13
2023-05-10T13:32:32.774Z,22.30
2023-05-10T13:37:29.605Z,20.52
2023-05-10T13:39:56.396Z,20.05
2023-05-10T13:42:24.292Z,18.73
2023-05-10T13:44:51.760Z,20.63
2023-05-10T13:47:24.889Z,20.70
2023-05-10T13:52:18.176Z,20.38
2023-05-10T13:54:48.440Z,19.38
2023-05-10T13:57:17.907Z,21.88
2023-05-10T13:59:44.683Z,3.58
2023-05-10T14:02:13.601Z,19.25
2023-05-10T14:04:41.166Z,8.13
2023-05-10T14:07:07.922Z,10.27
2023-05-10T14:09:34.605Z,3.85
2023-05-10T14:12:07.409Z,6.47
2023-05-10T14:14:34.047Z,4.20
2023-05-10T14:17:12.161Z,4.53
2023-05-10T14:19:51.298Z,4.05
2023-05-10T14:22:20.951Z,11.88
2023-05-10T14:24:48.700Z,5.68
2023-05-10T14:27:15.369Z,5.45
2023-05-10T14:29:42.727Z,4.40
2023-05-10T14:32:09.634Z,5.82
2023-05-10T14:37:14.958Z,3.50
2023-05-10T14:39:41.662Z,4.80
2023-05-10T14:42:08.302Z,5.20
2023-05-10T14:44:34.991Z,5.45
2023-05-10T14:49:56.930Z,7.28
2023-05-10T14:52:23.640Z,5.50
2023-05-10T14:54:50.279Z,6.05
2023-05-10T14:57:23.158Z,9.35
2023-05-10T15:02:17.518Z,4.95
2023-05-10T15:04:47.930Z,14.85
2023-05-10T15:07:17.582Z,7.15
2023-05-10T15:09:44.837Z,4.40
2023-05-10T15:12:12.098Z,6.60
2023-05-10T15:14:50.463Z,5.20
2023-05-10T15:17:20.792Z,3.97
2023-05-10T15:19:47.503Z,4.93
2023-05-10T15:22:18.039Z,11.73
2023-05-10T15:24:44.707Z,4.75
2023-05-10T15:27:14.640Z,4.18
2023-05-10T15:29:41.787Z,4.05
2023-05-10T15:32:08.947Z,4.82
2023-05-10T15:34:37.244Z,5.20
2023-05-10T15:37:06.577Z,5.97
2023-05-10T15:39:36.035Z,20.38
2023-05-10T15:44:45.772Z,20.20
2023-05-10T15:47:30.848Z,19.88
2023-05-10T15:50:01.330Z,19.38
2023-05-10T15:52:28.433Z,19.48
2023-05-10T15:54:55.148Z,19.88
2023-05-10T15:59:55.475Z,19.33
2023-05-10T16:02:23.640Z,19.33
2023-05-10T16:04:51.859Z,20.30
2023-05-10T16:07:18.600Z,19.95
2023-05-10T16:12:18.088Z,20.00
2023-05-10T16:17:29.159Z,19.98
2023-05-10T16:19:58.724Z,20.75
2023-05-10T16:22:30.086Z,19.38
2023-05-10T16:24:57.410Z,19.95
2023-05-10T16:27:24.603Z,20.23
2023-05-10T16:29:51.331Z,21.35
2023-05-10T16:34:45.653Z,21.08
2023-05-10T16:37:12.871Z,20.50
2023-05-10T16:39:44.711Z,21.08
2023-05-10T16:42:15.701Z,23.92
2023-05-10T16:44:43.024Z,20.98
2023-05-10T16:47:13.752Z,23.70
2023-05-10T16:49:42.634Z,21.80
2023-05-10T16:52:09.792Z,20.83
2023-05-10T16:54:37.833Z,21.52
2023-05-10T16:57:08.790Z,21.90
2023-05-10T16:59:35.426Z,21.70
2023-05-10T17:02:02.685Z,21.88
2023-05-10T17:04:30.017Z,21.77
2023-05-10T17:06:56.957Z,22.73
2023-05-10T17:11:59.462Z,21.45
2023-05-10T17:14:26.713Z,22.65
2023-05-10T17:16:53.568Z,22.20
2023-05-10T17:19:20.242Z,23.33
2023-05-10T17:22:07.631Z,22.60
2023-05-10T17:24:34.818Z,24.05
2023-05-10T17:27:03.675Z,22.38
2023-05-10T17:29:34.824Z,22.67
2023-05-10T17:32:01.629Z,22.90
2023-05-10T17:34:29.386Z,24.90
2023-05-10T17:36:56.077Z,23.42
2023-05-10T17:39:23.113Z,25.65
2023-05-10T17:44:26.651Z,22.73
2023-05-10T17:46:54.827Z,24.08
2023-05-10T17:49:25.153Z,24.35
2023-05-10T17:51:52.894Z,24.17
2023-05-10T17:54:19.540Z,23.20
2023-05-10T17:56:46.459Z,23.02
2023-05-10T17:59:14.135Z,23.90
2023-05-10T18:01:45.076Z,22.48
2023-05-10T18:04:11.800Z,22.38
2023-05-10T18:06:39.401Z,23.20
2023-05-10T18:09:07.927Z,23.33
2023-05-10T18:11:44.427Z,23.45
2023-05-10T18:14:13.064Z,25.08
2023-05-10T18:16:39.890Z,26.88
2023-05-10T18:19:06.743Z,24.58
2023-05-10T18:22:10.813Z,23.65
2023-05-10T18:24:41.044Z,23.35
2023-05-10T18:27:10.902Z,23.98
2023-05-10T18:29:38.402Z,22.63
2023-05-10T18:32:05.313Z,22.95
2023-05-10T18:34:32.061Z,22.73
2023-05-10T18:37:03.348Z,23.88
2023-05-10T18:39:36.043Z,22.88
2023-05-10T18:42:08.439Z,22.42
2023-05-10T18:44:35.166Z,22.73
2023-05-10T18:47:10.556Z,27.42
2023-05-10T18:49:37.237Z,23.88
2023-05-10T18:52:03.966Z,23.10
2023-05-10T18:54:33.445Z,24.13
2023-05-10T18:57:00.638Z,23.90
2023-05-10T18:59:28.198Z,22.88
2023-05-10T19:01:57.427Z,23.55
2023-05-10T19:04:27.559Z,24.75
2023-05-10T19:06:54.347Z,28.17
2023-05-10T19:09:21.393Z,23.33
2023-05-10T19:14:18.821Z,23.05
2023-05-10T19:16:45.600Z,23.45
2023-05-10T19:19:14.342Z,22.05
2023-05-10T19:21:43.947Z,22.77
2023-05-10T19:24:11.971Z,23.83
2023-05-10T19:26:38.670Z,27.20
2023-05-10T19:29:05.426Z,23.83
2023-05-10T19:31:36.769Z,23.98
2023-05-10T19:34:05.526Z,23.95
2023-05-10T19:36:34.368Z,25.92
2023-05-10T19:39:01.166Z,24.90
2023-05-10T19:41:27.839Z,22.63
2023-05-10T19:43:54.529Z,22.83
2023-05-10T19:46:21.208Z,24.52
2023-05-10T19:48:50.235Z,23.23
2023-05-10T19:51:17.405Z,24.08
2023-05-10T19:53:47.228Z,24.02
2023-05-10T19:56:14.441Z,25.00
2023-05-10T20:01:08.070Z,24.58
2023-05-10T20:06:01.948Z,24.33
2023-05-10T20:08:28.980Z,24.77
2023-05-10T20:10:57.967Z,25.63
2023-05-10T20:13:24.904Z,26.25
2023-05-10T20:15:58.314Z,27.08
2023-05-10T20:18:25.959Z,24.33
2023-05-10T20:21:05.112Z,25.02
2023-05-10T20:23:35.337Z,26.45
2023-05-10T20:26:01.991Z,28.90
2023-05-10T20:28:44.450Z,27.30
2023-05-10T20:31:13.733Z,28.35
2023-05-10T20:33:46.682Z,28.40
2023-05-10T20:36:13.330Z,29.73
2023-05-10T20:38:40.560Z,30.67
2023-05-10T20:41:07.718Z,30.05
2023-05-10T20:48:45.717Z,28.25
2023-05-10T20:51:12.392Z,30.55
2023-05-10T20:53:39.118Z,30.90
2023-05-10T20:56:06.221Z,29.33
2023-05-10T20:58:32.913Z,31.58
2023-05-10T21:01:01.282Z,28.60
2023-05-10T21:03:33.800Z,28.33
2023-05-10T21:06:00.800Z,28.00
2023-05-10T21:08:33.518Z,28.50
2023-05-10T21:11:08.349Z,27.92
2023-05-10T21:13:35.571Z,28.15
2023-05-10T21:18:29.156Z,26.35
2023-05-10T21:20:56.102Z,29.42
2023-05-10T21:23:25.701Z,29.77
2023-05-10T21:25:52.370Z,26.92
2023-05-10T21:28:19.129Z,26.20
2023-05-10T21:30:45.790Z,28.45
2023-05-10T21:33:13.121Z,29.30
2023-05-10T21:35:43.253Z,27.55
2023-05-10T21:38:15.780Z,27.67
2023-05-10T21:40:42.686Z,30.50
2023-05-10T21:43:09.864Z,28.65
2023-05-10T21:48:04.014Z,29.00
2023-05-10T21:50:35.199Z,29.77
2023-05-10T21:53:02.023Z,28.75
2023-05-10T21:55:31.705Z,28.33
2023-05-10T21:57:58.592Z,27.80
2023-05-10T22:00:25.344Z,28.65
2023-05-10T22:02:52.668Z,28.30
2023-05-10T22:05:19.407Z,28.17
2023-05-10T22:07:58.680Z,27.40
2023-05-10T22:10:37.066Z,28.95
2023-05-10T22:13:05.036Z,32.78
2023-05-10T22:15:34.214Z,28.48
2023-05-10T22:18:02.445Z,28.67
2023-05-10T22:20:29.489Z,29.00
2023-05-10T22:22:56.288Z,31.27
2023-05-10T22:25:23.526Z,29.02
2023-05-10T22:30:18.219Z,28.67
2023-05-10T22:32:58.543Z,28.77
2023-05-10T22:35:31.571Z,30.20
2023-05-10T22:38:01.208Z,30.60
2023-05-10T22:40:27.890Z,29.13
2023-05-10T22:42:58.308Z,31.23
2023-05-10T22:45:25.934Z,29.38
2023-05-10T22:47:52.728Z,30.77
2023-05-10T22:50:39.257Z,30.10
2023-05-10T22:53:06.911Z,30.20
2023-05-10T22:55:36.516Z,28.42
2023-05-10T22:58:09.988Z,28.02
2023-05-10T23:00:36.741Z,31.10
2023-05-10T23:03:03.921Z,28.80
2023-05-10T23:10:23.796Z,28.00
2023-05-10T23:12:50.557Z,30.33
2023-05-10T23:15:17.179Z,28.60
2023-05-10T23:17:47.322Z,27.65
2023-05-10T23:20:17.308Z,29.58
2023-05-10T23:22:49.913Z,28.85
2023-05-10T23:25:17.206Z,27.90
2023-05-10T23:30:36.219Z,28.45
2023-05-10T23:33:04.469Z,28.30
2023-05-10T23:35:32.107Z,29.30
2023-05-10T23:38:01.569Z,30.40
2023-05-10T23:40:28.225Z,28.17
2023-05-10T23:42:55.019Z,27.95
2023-05-10T23:45:21.639Z,28.02
2023-05-10T23:47:48.975Z,30.25
2023-05-10T23:52:43.454Z,28.58
2023-05-10T23:55:10.414Z,28.42
2023-05-10T23:57:37.836Z,29.45
